北九州空港の過去48時間の天気

北九州空港 (Kitakyushu)

現在時刻: 9/16 12:04 JST (9/16 03:04 UTC) 以下の時間は現地時間です。

過去48時間のMETAR気象情報
時間 風向 風速(m/s) 視程 気温(℃) 湿度(%) 気圧(hPa) 天気現象
16 11:00 7 10km以上 29 58 1006
16 10:00 6 10km以上 28 62 1007
16 09:00 5 10km以上 26 74 1006
16 08:00 5 10km以上 26 74 1006
16 07:00 北北西 5 10km以上 26 74 1006
16 06:00 5 10km以上 25 78 1006
16 05:00 北北西 4 10km以上 25 78 1006
16 04:00 4 10km以上 25 78 1006
16 03:00 北北西 4 10km以上 26 79 1006
16 02:00 6 10km以上 26 79 1006
16 01:00 5 10km以上 25 83 1007
16 00:00 7 10km以上 26 79 1007
15 23:00 7 10km以上 26 79 1007
15 22:00 7 10km以上 26 79 1007
15 21:00 6 10km以上 26 79 1007
15 20:00 7 10km以上 27 74 1007
15 19:00 7 10km以上 27 79 1006
15 18:00 7 10km以上 28 74 1006
15 17:00 7 10km以上 29 70 1006
15 16:00 2 10km以上 31 62 1005
15 15:00 南東 3 10km以上 30 66 1005
15 14:00 南東 3 10km以上 29 66 1006
15 13:00 南南東 3 10km以上 29 70 1007
15 12:00 東南東 2 10km以上 28 79 1008
15 11:00 不定 2 10km以上 28 79 1008
15 10:00 4 10km以上 28 79 1009
15 09:00 4 10km以上 27 79 1009
15 08:00 東北東 4 10km以上 27 79 1009
15 07:00 不定 1 10km以上 26 89 1008
15 06:00 南東 3 10km以上 26 84 1008
15 05:15 不定 2 10km以上 26 84 1008
15 05:00 東北東 5 10km以上 26 84 1008
15 04:00 東北東 5 10km以上 26 84 1008
15 03:00 不定 2 10km以上 26 84 1008
15 02:00 不定 2 10km以上 27 79 1009
15 01:00 不定 2 10km以上 27 79 1009
15 00:00 不定 2 10km以上 27 79 1009
14 23:00 東南東 4 10km以上 27 79 1009
14 22:00 東南東 4 10km以上 27 79 1009
14 21:00 4 10km以上 27 79 1009
14 20:00 4 10km以上 28 84 1009
14 19:00 不定 2 10km以上 28 84 1008
14 18:00 4 10km以上 28 79 1008
14 17:00 3 10km以上 28 74 1008
14 16:00 3 10km以上 28 70 1008
14 15:00 4 10km以上 28 74 1008
14 14:00 5 10km以上 28 70 1008
14 13:00 4 10km以上 28 74 1009
RJFR 160200Z 35014KT 9999 FEW020 29/20 Q1006
RJFR 160100Z 36012KT 9999 FEW020 SCT070 28/20 Q1007
RJFR 160000Z 01009KT 9999 FEW020 SCT030 BKN060 26/21 Q1006
RJFR 152300Z 35010KT 9999 FEW020 SCT030 26/21 Q1006
RJFR 152200Z 34009KT 9999 FEW020 SCT060 26/21 Q1006
RJFR 152100Z 35009KT 9999 FEW020 BKN050 25/21 Q1006
RJFR 152000Z 34008KT 9999 FEW020 BKN050 25/21 Q1006
RJFR 151900Z 35007KT 9999 FEW020 SCT045 BKN060 25/21 Q1006
RJFR 151800Z 34008KT 9999 FEW020 BKN050 26/22 Q1006
RJFR 151700Z 35011KT 9999 FEW020 SCT045 BKN060 26/22 Q1006
RJFR 151600Z 35010KT 9999 FEW020 SCT040 BKN060 25/22 Q1007
RJFR 151500Z 35013KT 9999 FEW020 SCT040 BKN060 26/22 Q1007
RJFR 151400Z 36013KT 9999 FEW020 BKN060 26/22 Q1007
RJFR 151300Z 36013KT 9999 FEW020 SCT040 BKN060 26/22 Q1007
RJFR 151200Z 36012KT 9999 FEW020 SCT040 BKN060 26/22 Q1007
RJFR 151100Z 36013KT 9999 FEW020 BKN050 27/22 Q1007
RJFR 151000Z 36013KT 9999 FEW020 SCT050 BKN060 27/23 Q1006
RJFR 150900Z 36013KT 9999 FEW015 SCT040 BKN050 28/23 Q1006
RJFR 150800Z 36013KT 9999 FEW015 SCT025 BKN040 29/23 Q1006
RJFR 150700Z 35004KT 9999 FEW025 31/23 Q1005
RJFR 150600Z 14005KT 9999 FEW025 30/23 Q1005
RJFR 150500Z 14006KT 050V190 9999 FEW025 29/22 Q1006
RJFR 150400Z 15005KT 9999 FEW025 29/23 Q1007
RJFR 150300Z 12003KT 070V170 9999 FEW020 28/24 Q1008
RJFR 150200Z VRB04KT 9999 FEW020 28/24 Q1008
RJFR 150100Z 08007KT 030V120 9999 FEW015 28/24 Q1009
RJFR 150000Z 08008KT 040V110 9999 FEW015 27/23 Q1009
RJFR 142300Z 07008KT 9999 FEW012 27/23 Q1009
RJFR 142200Z VRB02KT 9999 FEW015 26/24 Q1008
RJFR 142100Z 14005KT 110V180 9999 FEW010 26/23 Q1008
RJFR 142015Z VRB03KT 9999 FEW013 26/23 Q1008 RMK 1CU013 A2978
RJFR 142000Z 07010KT 9999 FEW013 26/23 Q1008
RJFR 141900Z 07009KT 9999 FEW015 26/23 Q1008
RJFR 141800Z VRB03KT 9999 FEW020 26/23 Q1008
RJFR 141700Z VRB03KT 9999 FEW015 SCT070 BKN/// 27/23 Q1009
RJFR 141600Z VRB04KT 9999 FEW015 BKN050 BKN070 27/23 Q1009
RJFR 141500Z VRB04KT 9999 FEW015 SCT060 27/23 Q1009
RJFR 141400Z 12007KT 080V150 9999 FEW020 SCT060 BKN/// 27/23 Q1009
RJFR 141300Z 11007KT 360V160 9999 FEW015 27/23 Q1009
RJFR 141200Z VRB07KT 9999 FEW015 27/23 Q1009
RJFR 141100Z 09008KT 050V140 9999 FEW025 28/25 Q1009
RJFR 141000Z VRB04KT 9999 FEW025 28/25 Q1008
RJFR 140900Z 09007KT 060V120 9999 FEW025 28/24 Q1008
RJFR 140800Z VRB05KT 9999 FEW030 28/23 Q1008
RJFR 140700Z VRB05KT 9999 FEW020 28/22 Q1008
RJFR 140600Z VRB08KT 9999 FEW020 28/23 Q1008
RJFR 140500Z 08009KT 340V140 9999 FEW020 28/22 Q1008
RJFR 140400Z 09008KT 350V160 9999 FEW020 28/23 Q1009